Time;durP1;ratioP1;P1;durP2;ratioP2;P2;SDS_P1;SDS_P2;PMS_P1;PMS_P2;Temp;Humidity;BMP_temperature;BMP_pressure;BME280_temperature;BME280_humidity;BME280_pressure;Samples;Min_cycle;Max_cycle;Signal;HPM_P1;HPM_P2
2023/01/25 00:00:38;;;;;;;15.18;13.65;;;15.60;67.10;;;;;;4194269;28;20051;-63
2023/01/25 00:03:19;;;;;;;;;;;15.60;66.90;;;;;;4194495;28;20055;-62
2023/01/25 00:06:01;;;;;;;14.55;13.05;;;15.60;67.00;;;;;;4194338;28;20366;-63
2023/01/25 00:08:43;;;;;;;16.17;14.07;;;15.60;67.20;;;;;;4193528;28;20059;-62
2023/01/25 00:11:24;;;;;;;14.05;12.55;;;15.50;67.30;;;;;;4194398;28;20506;-62
2023/01/25 00:14:05;;;;;;;15.13;13.07;;;15.50;67.30;;;;;;4194128;28;20056;-62
2023/01/25 00:16:46;;;;;;;;;;;15.50;67.20;;;;;;4194678;28;20074;-62
2023/01/25 00:19:27;;;;;;;14.98;13.38;;;15.60;67.40;;;;;;4194009;28;20283;-62
2023/01/25 00:22:08;;;;;;;14.35;12.90;;;15.60;67.50;;;;;;4194292;28;20055;-61
2023/01/25 00:24:50;;;;;;;15.73;14.02;;;15.50;67.20;;;;;;4193490;28;20059;-62
2023/01/25 00:27:31;;;;;;;16.60;13.55;;;15.50;67.10;;;;;;4194072;28;20110;-63
2023/01/25 00:30:12;;;;;;;15.93;14.27;;;15.50;67.00;;;;;;4194090;28;20449;-62
2023/01/25 00:32:57;;;;;;;;;;;15.50;66.80;;;;;;4193922;28;20414;-62
2023/01/25 00:35:39;;;;;;;17.60;15.05;;;15.50;67.00;;;;;;4192906;28;19927;-62
2023/01/25 00:38:29;;;;;;;15.85;14.20;;;15.50;67.40;;;;;;4181176;28;20059;-62
2023/01/25 00:41:12;;;;;;;16.08;14.25;;;15.40;67.10;;;;;;4193215;28;20403;-62
2023/01/25 00:43:53;;;;;;;16.35;14.15;;;15.40;67.50;;;;;;4193709;28;20121;-62
2023/01/25 00:46:34;;;;;;;16.15;14.50;;;15.40;67.90;;;;;;4194119;28;20129;-62
2023/01/25 00:49:21;;;;;;;15.10;13.50;;;15.50;67.70;;;;;;4192694;28;20079;-62
2023/01/25 00:52:02;;;;;;;17.20;13.98;;;15.50;67.10;;;;;;4176103;28;20126;-62
2023/01/25 00:54:43;;;;;;;15.97;14.20;;;15.60;67.90;;;;;;4177100;28;20055;-62
2023/01/25 00:57:25;;;;;;;16.83;14.82;;;15.60;66.90;;;;;;4184764;28;20136;-62
2023/01/25 01:00:07;;;;;;;16.55;14.82;;;15.70;66.50;;;;;;4191656;28;20059;-63
2023/01/25 01:02:48;;;;;;;16.90;14.55;;;15.70;66.40;;;;;;4192189;28;20055;-62
2023/01/25 01:05:29;;;;;;;16.05;14.38;;;15.70;66.20;;;;;;4192483;28;20509;-62
2023/01/25 01:08:11;;;;;;;17.73;15.35;;;15.60;67.10;;;;;;4192481;28;20074;-62
2023/01/25 01:10:52;;;;;;;15.52;13.93;;;15.60;66.30;;;;;;4193372;28;20052;-63
2023/01/25 01:13:34;;;;;;;18.02;15.70;;;15.50;66.50;;;;;;4192055;28;20043;-63
2023/01/25 01:16:15;;;;;;;18.25;16.35;;;15.40;66.80;;;;;;4178093;28;20375;-62
2023/01/25 01:18:57;;;;;;;17.48;15.65;;;15.50;67.00;;;;;;4192084;28;20059;-63
2023/01/25 01:21:38;;;;;;;16.15;14.57;;;15.50;66.80;;;;;;4193248;28;20122;-63
2023/01/25 01:24:19;;;;;;;18.10;16.13;;;15.60;66.60;;;;;;4193213;28;20051;-63
2023/01/25 01:27:01;;;;;;;18.17;16.25;;;15.60;66.50;;;;;;4180487;28;20449;-63
2023/01/25 01:29:43;;;;;;;20.30;16.63;;;15.70;66.40;;;;;;4191815;28;20059;-63
2023/01/25 01:32:24;;;;;;;18.05;16.15;;;15.70;66.20;;;;;;4192825;28;20125;-63
2023/01/25 01:35:06;;;;;;;18.67;16.77;;;15.80;66.00;;;;;;4191080;28;20105;-63
2023/01/25 01:37:48;;;;;;;19.45;17.45;;;15.80;65.90;;;;;;4191609;28;20043;-63
2023/01/25 01:40:29;;;;;;;18.15;16.25;;;15.80;65.80;;;;;;4175304;28;20060;-63
2023/01/25 01:43:17;;;;;;;18.88;16.88;;;15.80;65.70;;;;;;4175429;28;20051;-63
2023/01/25 01:46:03;;;;;;;18.75;16.75;;;15.70;65.70;;;;;;4182630;28;20129;-63
2023/01/25 01:48:51;;;;;;;19.88;17.50;;;15.60;65.80;;;;;;4191630;28;20055;-63
2023/01/25 01:51:47;;;;;;;21.95;18.27;;;15.50;66.00;;;;;;4191343;28;20060;-63
2023/01/25 01:54:37;;;;;;;19.60;17.50;;;15.50;66.20;;;;;;4191494;28;20051;-62
2023/01/25 01:57:23;;;;;;;20.48;17.50;;;15.60;66.50;;;;;;4191738;28;20491;-63
2023/01/25 02:00:11;;;;;;;21.63;17.88;;;15.70;66.30;;;;;;4191528;28;20052;-63
2023/01/25 02:02:55;;;;;;;20.13;18.02;;;15.70;66.80;;;;;;4191680;28;20179;-62
2023/01/25 02:05:42;;;;;;;21.10;18.92;;;15.80;65.70;;;;;;4190800;28;20048;-63
2023/01/25 02:08:24;;;;;;;21.80;19.02;;;15.80;65.50;;;;;;4191596;28;20063;-63
2023/01/25 02:11:05;;;;;;;;;;;15.80;65.40;;;;;;4191855;28;20047;-63
2023/01/25 02:13:46;;;;;;;21.58;19.17;;;15.90;65.50;;;;;;4176786;28;19970;-62
2023/01/25 02:16:29;;;;;;;20.02;17.83;;;15.90;65.70;;;;;;4191265;28;20182;-63
2023/01/25 02:19:17;;;;;;;20.98;18.05;;;16.00;65.20;;;;;;4191168;28;20494;-62
2023/01/25 02:22:06;;;;;;;21.30;18.85;;;16.00;64.80;;;;;;4191209;28;20051;-62
2023/01/25 02:24:53;;;;;;;20.40;18.20;;;16.00;64.80;;;;;;4191291;28;20059;-63
2023/01/25 02:27:40;;;;;;;22.15;18.75;;;16.00;64.80;;;;;;4192454;28;20047;-63
2023/01/25 02:30:22;;;;;;;22.58;20.20;;;16.10;64.50;;;;;;4192551;28;20051;-63
2023/01/25 02:33:04;;;;;;;22.08;18.98;;;16.10;64.50;;;;;;4192295;28;20066;-63
2023/01/25 02:35:48;;;;;;;21.30;18.90;;;16.10;64.30;;;;;;4191694;28;20133;-63
2023/01/25 02:38:33;;;;;;;21.60;19.27;;;16.10;64.30;;;;;;4190707;28;20055;-62
2023/01/25 02:41:18;;;;;;;20.75;18.40;;;16.00;64.50;;;;;;4191757;28;20059;-63
2023/01/25 02:44:01;;;;;;;22.40;20.00;;;16.00;64.70;;;;;;4190126;28;20560;-63
2023/01/25 02:46:44;;;;;;;21.95;19.55;;;16.00;64.80;;;;;;4191925;28;20047;-62
2023/01/25 02:49:26;;;;;;;20.77;18.45;;;15.90;64.90;;;;;;4190938;28;20058;-63
2023/01/25 02:52:07;;;;;;;23.45;20.55;;;16.00;65.10;;;;;;4191858;28;20403;-63
2023/01/25 02:54:48;;;;;;;22.73;20.27;;;16.00;65.00;;;;;;4176778;28;20056;-62
2023/01/25 02:57:29;;;;;;;23.90;20.23;;;16.00;64.90;;;;;;4192296;28;20067;-62
2023/01/25 03:00:13;;;;;;;23.42;20.23;;;16.00;64.90;;;;;;4190977;28;20178;-63
2023/01/25 03:02:54;;;;;;;23.02;20.45;;;15.90;64.80;;;;;;4191075;28;20486;-62
2023/01/25 03:05:37;;;;;;;22.65;20.15;;;15.90;65.10;;;;;;4190411;28;20055;-65
2023/01/25 03:08:18;;;;;;;22.65;20.25;;;15.80;65.10;;;;;;4191393;28;20059;-63
2023/01/25 03:11:04;;;;;;;22.13;19.73;;;15.70;65.30;;;;;;4190947;28;20075;-63
2023/01/25 03:13:45;;;;;;;23.02;19.83;;;15.70;65.60;;;;;;4191954;28;20060;-62
2023/01/25 03:16:27;;;;;;;20.88;18.67;;;15.60;66.00;;;;;;4178992;28;20071;-62
2023/01/25 03:19:09;;;;;;;23.33;20.83;;;15.60;66.30;;;;;;4177682;28;20048;-62
2023/01/25 03:21:51;;;;;;;23.75;20.65;;;15.70;65.20;;;;;;4177589;28;20145;-62
2023/01/25 03:24:32;;;;;;;24.27;21.00;;;15.80;65.70;;;;;;4187599;28;20181;-62
2023/01/25 03:27:15;;;;;;;23.17;20.67;;;15.80;65.60;;;;;;4194148;28;20052;-62
2023/01/25 03:30:00;;;;;;;22.98;20.42;;;15.90;66.20;;;;;;4193686;28;20418;-62
2023/01/25 03:32:46;;;;;;;24.63;21.63;;;15.90;65.00;;;;;;4193972;28;20051;-62
2023/01/25 03:35:31;;;;;;;20.45;18.23;;;16.00;65.70;;;;;;4205597;28;20071;-62
2023/01/25 03:38:12;;;;;;;23.83;19.73;;;16.00;64.90;;;;;;4195071;28;20211;-63
2023/01/25 03:40:53;;;;;;;23.83;20.10;;;16.00;64.60;;;;;;4194657;28;20415;-63
2023/01/25 03:43:36;;;;;;;22.77;19.73;;;16.10;64.40;;;;;;4193806;28;20059;-62
2023/01/25 03:46:16;;;;;;;21.93;19.57;;;16.10;64.30;;;;;;4194724;28;20059;-63
2023/01/25 03:48:59;;;;;;;22.25;19.20;;;16.10;64.40;;;;;;4189832;28;20055;-63
2023/01/25 03:51:39;;;;;;;25.65;21.10;;;16.00;65.50;;;;;;4193775;28;20197;-62
2023/01/25 03:54:20;;;;;;;23.55;19.50;;;16.00;64.60;;;;;;4193667;28;20063;-63
2023/01/25 03:57:01;;;;;;;25.17;20.63;;;16.00;64.70;;;;;;4192480;28;20055;-62
2023/01/25 03:59:45;;;;;;;24.67;20.77;;;16.00;64.60;;;;;;4193585;28;20059;-63
2023/01/25 04:02:26;;;;;;;24.23;19.83;;;16.00;64.60;;;;;;4194244;28;20057;-63
2023/01/25 04:05:09;;;;;;;24.30;21.17;;;15.90;64.60;;;;;;4193325;28;20051;-63
2023/01/25 04:07:50;;;;;;;26.02;20.52;;;15.90;64.60;;;;;;4192866;28;20089;-63
2023/01/25 04:10:39;;;;;;;23.17;20.00;;;15.80;64.90;;;;;;4192873;28;20058;-62
2023/01/25 04:13:22;;;;;;;26.13;20.98;;;15.80;65.30;;;;;;4193006;28;20054;-62
2023/01/25 04:16:04;;;;;;;27.33;22.60;;;15.90;65.10;;;;;;4193051;28;20582;-62
2023/01/25 04:19:06;;;;;;;29.10;22.95;;;15.90;64.80;;;;;;4194143;28;20051;-64
2023/01/25 04:21:48;;;;;;;24.08;20.08;;;15.90;64.70;;;;;;4192866;28;20521;-64
2023/01/25 04:24:30;;;;;;;27.05;22.02;;;15.90;64.80;;;;;;4193068;28;20043;-64
2023/01/25 04:27:11;;;;;;;25.08;20.98;;;16.00;64.60;;;;;;4193153;28;20087;-64
2023/01/25 04:30:00;;;;;;;25.58;22.02;;;16.00;64.50;;;;;;4192505;28;20201;-64
2023/01/25 04:32:42;;;;;;;25.40;21.85;;;16.10;64.30;;;;;;4181364;28;20051;-64
2023/01/25 04:35:34;;;;;;;26.60;21.90;;;16.00;64.10;;;;;;4192487;28;20125;-64
2023/01/25 04:38:18;;;;;;;28.13;22.73;;;16.00;64.20;;;;;;4192808;28;20098;-64
2023/01/25 04:41:00;;;;;;;28.02;22.67;;;16.00;64.40;;;;;;4192595;28;20055;-64
2023/01/25 04:43:41;;;;;;;28.45;23.50;;;16.00;64.60;;;;;;4193986;28;20055;-64
2023/01/25 04:46:23;;;;;;;30.58;24.98;;;16.10;64.20;;;;;;4192599;28;20055;-64
2023/01/25 04:49:04;;;;;;;30.38;24.25;;;16.10;64.90;;;;;;4193829;28;20051;-64
2023/01/25 04:51:46;;;;;;;30.38;24.02;;;16.10;64.00;;;;;;4193735;28;20101;-64
2023/01/25 04:54:28;;;;;;;28.98;24.25;;;16.00;63.70;;;;;;4192547;28;20067;-64
2023/01/25 04:57:09;;;;;;;28.13;24.10;;;16.00;64.10;;;;;;4192481;28;20059;-64
2023/01/25 04:59:50;;;;;;;29.23;24.60;;;16.00;64.30;;;;;;4192217;28;20051;-64
2023/01/25 05:02:32;;;;;;;30.55;25.42;;;16.00;64.30;;;;;;4174148;28;20051;-64
2023/01/25 05:05:14;;;;;;;27.55;23.80;;;16.00;64.20;;;;;;4146584;28;20148;-64
2023/01/25 05:07:55;;;;;;;29.95;24.70;;;15.90;64.30;;;;;;4158219;28;20156;-64
2023/01/25 05:10:37;;;;;;;30.25;23.95;;;15.90;64.60;;;;;;4146447;28;20199;-65
2023/01/25 05:13:37;;;;;;;33.38;26.05;;;15.90;64.60;;;;;;4157421;28;20076;-64
2023/01/25 05:16:30;;;;;;;34.65;27.17;;;16.00;64.40;;;;;;4145694;28;20051;-64
2023/01/25 05:19:12;;;;;;;33.00;27.30;;;16.00;64.20;;;;;;4155547;28;20056;-65
2023/01/25 05:22:10;;;;;;;36.30;28.35;;;16.00;64.10;;;;;;4161655;28;20102;-65
2023/01/25 05:24:57;;;;;;;33.17;26.73;;;16.00;64.30;;;;;;4174348;28;20601;-64
2023/01/25 05:27:39;;;;;;;33.45;27.35;;;16.00;64.30;;;;;;4162783;28;20392;-64
2023/01/25 05:30:45;;;;;;;32.53;26.75;;;15.90;64.20;;;;;;4174005;28;20052;-64
2023/01/25 05:33:38;;;;;;;40.47;27.63;;;15.90;64.60;;;;;;4169060;28;20083;-64
2023/01/25 05:36:19;;;;;;;35.25;28.88;;;15.90;64.50;;;;;;4175489;28;20101;-64
2023/01/25 05:38:59;;;;;;;36.50;27.57;;;15.90;64.50;;;;;;4176506;28;20134;-64
2023/01/25 05:41:43;;;;;;;35.00;28.15;;;15.80;64.50;;;;;;4182226;28;20898;-64
2023/01/25 05:44:27;;;;;;;34.75;27.17;;;15.80;64.80;;;;;;4191597;28;20055;-64
2023/01/25 05:47:10;;;;;;;36.67;29.20;;;15.80;65.70;;;;;;4191651;28;20367;-64
2023/01/25 05:49:52;;;;;;;62.22;28.77;;;15.80;64.60;;;;;;4176477;28;20048;-64
2023/01/25 05:52:47;;;;;;;35.60;27.80;;;15.90;64.50;;;;;;4174918;28;20075;-64
2023/01/25 05:55:29;;;;;;;38.88;29.85;;;15.90;64.40;;;;;;4186608;28;20047;-65
2023/01/25 05:58:15;;;;;;;33.63;26.80;;;15.90;64.30;;;;;;4174879;28;20380;-64
2023/01/25 06:00:59;;;;;;;37.60;29.05;;;15.80;64.20;;;;;;4177322;28;20068;-64
2023/01/25 06:03:50;;;;;;;36.08;28.08;;;15.80;64.50;;;;;;4191136;28;20196;-64
2023/01/25 06:06:31;;;;;;;39.33;29.38;;;15.80;64.70;;;;;;4191667;28;20403;-63
2023/01/25 06:09:12;;;;;;;40.13;29.42;;;15.80;64.70;;;;;;4192248;28;20047;-62
2023/01/25 06:11:54;;;;;;;37.08;28.73;;;15.70;64.70;;;;;;4190693;28;20051;-63
2023/01/25 06:14:34;;;;;;;37.97;29.00;;;15.70;65.10;;;;;;4191364;28;20530;-63
2023/01/25 06:17:18;;;;;;;36.15;27.88;;;15.70;65.30;;;;;;4191077;28;20055;-63
2023/01/25 06:20:17;;;;;;;37.60;29.83;;;15.80;65.30;;;;;;4191650;28;20078;-63
2023/01/25 06:23:11;;;;;;;38.70;28.88;;;15.80;64.80;;;;;;4192111;28;20052;-63
2023/01/25 06:25:54;;;;;;;39.63;30.45;;;15.90;64.30;;;;;;4192509;28;20051;-63
2023/01/25 06:28:36;;;;;;;39.40;30.33;;;15.90;64.30;;;;;;4192484;28;20851;-62
2023/01/25 06:31:18;;;;;;;39.75;30.83;;;15.90;64.20;;;;;;4175708;28;20218;-63
2023/01/25 06:34:03;;;;;;;40.30;30.42;;;16.00;64.10;;;;;;4175953;28;20052;-62
2023/01/25 06:36:44;;;;;;;38.90;31.10;;;16.00;64.70;;;;;;4178910;28;20081;-63
2023/01/25 06:39:25;;;;;;;38.43;31.17;;;16.00;63.90;;;;;;4191901;28;20086;-63
2023/01/25 06:42:06;;;;;;;39.60;30.75;;;15.90;63.90;;;;;;4192576;28;20059;-63
2023/01/25 06:44:47;;;;;;;38.17;30.00;;;15.80;64.00;;;;;;4192115;28;20047;-62
2023/01/25 06:47:28;;;;;;;40.03;31.77;;;15.70;64.30;;;;;;4191961;28;20133;-63
2023/01/25 06:50:11;;;;;;;38.65;30.08;;;15.70;64.70;;;;;;4191142;28;20129;-60
2023/01/25 06:52:52;;;;;;;39.97;31.58;;;15.70;64.80;;;;;;4195241;28;20085;-62
2023/01/25 06:55:33;;;;;;;38.53;28.73;;;15.80;65.20;;;;;;4195731;28;20098;-62
2023/01/25 06:58:14;;;;;;;39.58;30.17;;;15.80;65.00;;;;;;4194847;28;20052;-62
2023/01/25 07:00:59;;;;;;;39.58;30.83;;;15.80;64.90;;;;;;4194876;28;20117;-62
2023/01/25 07:03:40;;;;;;;39.92;31.45;;;15.80;64.80;;;;;;4195353;28;20056;-63
2023/01/25 07:06:24;;;;;;;38.78;30.10;;;15.70;64.90;;;;;;4195393;28;20055;-62
2023/01/25 07:09:06;;;;;;;41.10;29.50;;;15.60;65.00;;;;;;4195232;28;20050;-62
2023/01/25 07:11:47;;;;;;;39.90;28.77;;;15.60;65.10;;;;;;4194126;28;20051;-61
2023/01/25 07:14:28;;;;;;;39.13;29.92;;;15.60;65.20;;;;;;4178306;28;20097;-62
2023/01/25 07:17:09;;;;;;;36.15;29.20;;;15.60;65.30;;;;;;4179562;28;20159;-63
2023/01/25 07:19:50;;;;;;;41.53;30.30;;;15.60;65.60;;;;;;4193529;28;20063;-63
2023/01/25 07:22:34;;;;;;;38.95;29.83;;;15.70;65.50;;;;;;4194311;28;20392;-62
2023/01/25 07:25:15;;;;;;;38.35;29.15;;;15.70;65.10;;;;;;4194885;28;20113;-63
2023/01/25 07:27:56;;;;;;;35.67;27.55;;;15.70;65.10;;;;;;4178562;28;20060;-63
2023/01/25 07:30:36;;;;;;;35.92;27.25;;;15.80;65.90;;;;;;4178462;28;20056;-62
2023/01/25 07:33:17;;;;;;;38.08;30.38;;;15.80;64.90;;;;;;4178742;28;20055;-63
2023/01/25 07:36:00;;;;;;;36.92;28.30;;;15.90;64.60;;;;;;4182219;28;20131;-62
2023/01/25 07:38:42;;;;;;;34.78;28.13;;;16.00;64.00;;;;;;4193268;28;20549;-62
2023/01/25 07:41:23;;;;;;;33.83;25.63;;;16.10;64.60;;;;;;4194389;28;20056;-62
2023/01/25 07:44:05;;;;;;;31.35;24.25;;;16.20;63.70;;;;;;4193324;28;20056;-62
2023/01/25 07:46:53;;;;;;;29.45;24.30;;;16.20;63.80;;;;;;4192914;28;20496;-61
2023/01/25 07:49:34;;;;;;;33.60;25.42;;;16.30;62.40;;;;;;4194431;28;20530;-62
2023/01/25 07:52:15;;;;;;;30.98;23.90;;;16.30;62.30;;;;;;4194281;28;20094;-61
2023/01/25 07:54:58;;;;;;;32.22;25.85;;;16.30;61.60;;;;;;4194064;28;20614;-62
2023/01/25 07:57:39;;;;;;;31.63;25.98;;;16.40;60.90;;;;;;4177658;28;20052;-62
2023/01/25 08:00:20;;;;;;;31.02;24.95;;;16.40;60.40;;;;;;4177711;28;20060;-62
2023/01/25 08:03:06;;;;;;;32.83;25.00;;;16.30;60.10;;;;;;4187891;28;20059;-62
2023/01/25 08:05:46;;;;;;;33.47;27.15;;;16.20;60.10;;;;;;4190947;28;20059;-62
2023/01/25 08:08:28;;;;;;;30.55;23.08;;;16.10;60.10;;;;;;4186936;28;20414;-62
2023/01/25 08:11:13;;;;;;;32.72;26.23;;;16.00;60.40;;;;;;4193678;28;20598;-62
2023/01/25 08:13:54;;;;;;;31.83;26.17;;;15.90;60.50;;;;;;4192349;28;20051;-61
2023/01/25 08:16:35;;;;;;;33.08;25.63;;;15.90;60.40;;;;;;4179643;28;20202;-66
2023/01/25 08:19:18;;;;;;;29.23;22.13;;;16.00;60.20;;;;;;4177218;28;20048;-66
2023/01/25 08:21:59;;;;;;;30.65;22.35;;;16.00;60.10;;;;;;4189131;28;20503;-66
2023/01/25 08:24:40;;;;;;;29.00;21.45;;;15.90;60.10;;;;;;4182285;28;20055;-65
2023/01/25 08:27:23;;;;;;;27.02;22.10;;;15.90;60.00;;;;;;4185553;28;20063;-67
2023/01/25 08:30:06;;;;;;;28.50;22.70;;;15.80;59.60;;;;;;4192961;28;20051;-71
2023/01/25 08:32:47;;;;;;;29.08;23.40;;;15.80;59.50;;;;;;4192556;28;20055;-67
2023/01/25 08:35:28;;;;;;;29.77;22.02;;;15.80;59.30;;;;;;4193558;28;20510;-67
2023/01/25 08:38:08;;;;;;;30.42;22.80;;;15.80;59.30;;;;;;4185739;28;20137;-66
2023/01/25 08:40:49;;;;;;;26.48;21.67;;;15.80;59.10;;;;;;4191987;28;20129;-67
2023/01/25 08:43:32;;;;;;;30.30;24.10;;;15.80;59.00;;;;;;4177230;28;20052;-68
2023/01/25 08:46:14;;;;;;;28.98;23.77;;;15.80;58.80;;;;;;4184438;28;20102;-68
2023/01/25 08:48:56;;;;;;;27.98;20.00;;;15.80;58.80;;;;;;4193851;28;20079;-68
2023/01/25 08:51:37;;;;;;;31.00;24.42;;;15.70;59.10;;;;;;4193786;28;20137;-68
2023/01/25 08:54:18;;;;;;;29.80;24.98;;;15.70;59.20;;;;;;4193562;28;20071;-68
2023/01/25 08:56:58;;;;;;;27.00;21.65;;;15.60;59.10;;;;;;4193482;28;20117;-67
2023/01/25 08:59:41;;;;;;;27.50;23.33;;;15.60;59.80;;;;;;4176704;28;20716;-66
2023/01/25 09:02:21;;;;;;;27.80;23.58;;;15.60;59.20;;;;;;4184718;28;20498;-66
2023/01/25 09:05:03;;;;;;;28.42;23.40;;;15.50;58.90;;;;;;4193552;28;20052;-66
2023/01/25 09:07:44;;;;;;;26.75;21.05;;;15.60;58.90;;;;;;4193308;28;20055;-66
2023/01/25 09:10:25;;;;;;;28.10;22.15;;;15.50;58.80;;;;;;4191870;28;20067;-66
2023/01/25 09:13:06;;;;;;;29.55;22.52;;;15.60;58.40;;;;;;4191142;28;20133;-66
2023/01/25 09:15:49;;;;;;;28.48;22.27;;;15.60;58.00;;;;;;4182117;28;20071;-67
2023/01/25 09:18:31;;;;;;;28.95;22.25;;;15.50;57.80;;;;;;4192385;28;20103;-67
2023/01/25 09:21:14;;;;;;;29.10;23.67;;;15.50;58.40;;;;;;4192803;28;20594;-67
2023/01/25 09:23:55;;;;;;;25.98;20.30;;;15.50;57.50;;;;;;4193097;28;20079;-67
2023/01/25 09:26:51;;;;;;;26.30;21.95;;;15.50;57.30;;;;;;4192429;28;20483;-67
2023/01/25 09:29:39;;;;;;;24.90;19.77;;;15.50;57.50;;;;;;4175908;28;20040;-67
2023/01/25 09:32:27;;;;;;;28.33;22.05;;;15.40;57.60;;;;;;4193282;28;20517;-67
2023/01/25 09:35:08;;;;;;;27.38;21.40;;;15.40;57.80;;;;;;4192966;28;20051;-66
2023/01/25 09:37:52;;;;;;;28.35;22.55;;;15.30;57.90;;;;;;4181343;28;20051;-66
2023/01/25 09:40:39;;;;;;;30.08;22.95;;;15.30;57.90;;;;;;4177521;28;20055;-66
2023/01/25 09:43:34;;;;;;;31.77;22.58;;;15.30;58.10;;;;;;4192659;28;20059;-67
2023/01/25 09:46:23;;;;;;;29.08;22.77;;;15.30;58.50;;;;;;4179981;28;20063;-64
2023/01/25 09:49:21;;;;;;;28.77;22.42;;;15.30;58.70;;;;;;4192540;28;20057;-66
2023/01/25 09:52:21;;;;;;;32.00;24.00;;;15.30;58.70;;;;;;4192325;28;20056;-66
2023/01/25 09:55:02;;;;;;;30.23;24.00;;;15.30;59.00;;;;;;4192607;28;20048;-66
2023/01/25 09:57:46;;;;;;;27.83;19.70;;;15.20;59.40;;;;;;4192492;28;20070;-68
2023/01/25 10:00:32;;;;;;;29.52;21.30;;;15.20;59.70;;;;;;4188224;28;20074;-63
2023/01/25 10:03:21;;;;;;;32.28;24.77;;;15.10;60.70;;;;;;4192406;28;20051;-68
2023/01/25 10:06:03;;;;;;;32.45;25.73;;;15.10;61.40;;;;;;4192415;28;20051;-68
2023/01/25 10:08:51;;;;;;;32.17;23.00;;;15.20;61.50;;;;;;4192001;28;20071;-68
2023/01/25 10:11:33;;;;;;;32.25;25.73;;;15.30;61.10;;;;;;4191063;28;20051;-67
2023/01/25 10:14:16;;;;;;;32.47;24.90;;;15.40;61.00;;;;;;4188860;28;20174;-67
2023/01/25 10:17:06;;;;;;;30.45;24.33;;;15.50;61.70;;;;;;4176124;28;20051;-67
2023/01/25 10:20:05;;;;;;;33.85;25.45;;;15.70;60.60;;;;;;4191912;28;20052;-68
2023/01/25 10:22:52;;;;;;;31.55;24.50;;;15.70;60.00;;;;;;4191738;28;20159;-67
2023/01/25 10:25:38;;;;;;;30.77;25.02;;;15.80;59.90;;;;;;4174175;28;20055;-69
2023/01/25 10:28:30;;;;;;;31.33;24.17;;;15.80;59.90;;;;;;4175439;28;20056;-69
2023/01/25 10:31:18;;;;;;;33.58;24.88;;;15.80;59.80;;;;;;4175310;28;20191;-68
2023/01/25 10:34:10;;;;;;;31.27;24.27;;;15.80;60.00;;;;;;4182560;28;20055;-69
2023/01/25 10:36:55;;;;;;;32.87;24.93;;;15.70;60.20;;;;;;4192293;28;20106;-68
2023/01/25 10:39:42;;;;;;;31.50;23.80;;;15.60;60.40;;;;;;4191144;28;20105;-70
2023/01/25 10:42:29;;;;;;;30.50;23.08;;;15.60;60.60;;;;;;4187998;28;20051;-70
2023/01/25 10:45:12;;;;;;;29.98;23.08;;;15.50;60.90;;;;;;4175699;28;20191;-70
2023/01/25 10:48:01;;;;;;;29.85;22.42;;;15.50;60.90;;;;;;4175749;28;20069;-70
2023/01/25 10:50:48;;;;;;;30.15;22.65;;;15.30;61.30;;;;;;4179131;28;20059;-69
2023/01/25 10:53:32;;;;;;;30.52;22.65;;;15.40;61.90;;;;;;4190620;28;20129;-69
2023/01/25 10:56:34;;;;;;;32.53;23.25;;;15.40;62.90;;;;;;4175664;28;20048;-70
2023/01/25 10:59:20;;;;;;;31.83;23.75;;;15.50;61.90;;;;;;4191565;28;20055;-69
2023/01/25 11:02:34;;;;;;;32.60;23.92;;;15.60;61.60;;;;;;4189729;28;20047;-71
2023/01/25 11:05:25;;;;;;;32.78;23.55;;;15.70;61.20;;;;;;4189913;28;20050;-69
2023/01/25 11:08:25;;;;;;;30.75;23.73;;;15.80;61.00;;;;;;4199653;28;20190;-68
2023/01/25 11:11:25;;;;;;;33.28;24.15;;;15.80;61.20;;;;;;4214546;28;20050;-69
2023/01/25 11:14:17;;;;;;;34.80;23.42;;;15.80;61.30;;;;;;4188817;28;20137;-70
2023/01/25 11:17:01;;;;;;;32.20;24.05;;;15.80;61.00;;;;;;4201208;28;20055;-68
2023/01/25 11:19:42;;;;;;;33.00;23.52;;;15.80;61.00;;;;;;4203609;28;20059;-69
2023/01/25 11:22:24;;;;;;;31.95;23.50;;;15.80;61.50;;;;;;4192408;28;20138;-69
2023/01/25 11:25:30;;;;;;;31.52;23.75;;;15.80;61.70;;;;;;4197517;28;20043;-69
2023/01/25 11:28:16;;;;;;;31.60;23.10;;;15.70;62.20;;;;;;4197259;28;20055;-71
2023/01/25 11:30:58;;;;;;;29.65;23.17;;;15.70;62.50;;;;;;4189095;28;20063;-70
2023/01/25 11:33:41;;;;;;;34.65;23.58;;;15.80;62.40;;;;;;4199357;28;20051;-70
2023/01/25 11:36:25;;;;;;;;;;;15.80;62.10;;;;;;4194207;28;20160;-69
2023/01/25 11:39:19;;;;;;;34.80;23.75;;;15.80;62.20;;;;;;4196243;28;19931;-69
2023/01/25 11:42:11;;;;;;;34.45;23.13;;;15.70;61.90;;;;;;4195979;28;20157;-69
2023/01/25 11:45:23;;;;;;;35.58;25.42;;;15.70;62.00;;;;;;4205451;28;20128;-69
2023/01/25 11:48:24;;;;;;;34.60;24.67;;;15.60;62.10;;;;;;4205750;28;20153;-69
2023/01/25 11:51:07;;;;;;;32.83;24.27;;;15.70;62.10;;;;;;4192133;28;20121;-70
2023/01/25 11:53:59;;;;;;;33.90;23.73;;;15.70;61.90;;;;;;4192741;28;20082;-69
2023/01/25 11:56:54;;;;;;;35.55;23.75;;;15.70;61.80;;;;;;4201142;28;20047;-69
2023/01/25 11:59:57;;;;;;;32.50;22.88;;;15.70;61.80;;;;;;4194412;28;20131;-69
2023/01/25 12:03:19;;;;;;;33.08;22.75;;;15.80;61.60;;;;;;4207430;28;20966;-70
2023/01/25 12:06:07;;;;;;;32.72;22.70;;;15.80;61.40;;;;;;4202239;28;20047;-70
2023/01/25 12:09:18;;;;;;;32.30;21.60;;;15.80;61.80;;;;;;4198540;28;20101;-69
2023/01/25 12:12:18;;;;;;;34.72;24.58;;;15.80;61.50;;;;;;4192637;28;20056;-69
2023/01/25 12:15:17;;;;;;;33.13;23.65;;;15.80;61.30;;;;;;4199032;28;20050;-69
2023/01/25 12:18:34;;;;;;;37.58;24.90;;;15.70;61.20;;;;;;4191226;28;20178;-69
2023/01/25 12:21:29;;;;;;;33.40;23.45;;;15.70;61.70;;;;;;4165866;28;20071;-69
2023/01/25 12:24:26;;;;;;;33.75;23.67;;;15.70;62.00;;;;;;4190851;28;20047;-69
2023/01/25 12:27:22;;;;;;;32.67;23.40;;;15.70;61.70;;;;;;4191357;28;20052;-69
2023/01/25 12:30:16;;;;;;;34.67;24.52;;;15.70;61.70;;;;;;4199441;28;20046;-70
2023/01/25 12:33:00;;;;;;;33.05;22.77;;;15.70;61.50;;;;;;4197249;28;20092;-66
2023/01/25 12:35:59;;;;;;;33.10;22.90;;;15.80;61.70;;;;;;4199681;28;20104;-69
2023/01/25 12:38:49;;;;;;;32.90;22.52;;;15.70;61.60;;;;;;4192572;28;20059;-68
2023/01/25 12:41:40;;;;;;;34.10;24.67;;;15.70;61.70;;;;;;4192566;28;20067;-69
2023/01/25 12:44:25;;;;;;;32.40;22.80;;;15.70;61.50;;;;;;4195805;28;20059;-69
2023/01/25 12:47:13;;;;;;;34.47;23.65;;;15.70;61.60;;;;;;4191731;28;20202;-69
2023/01/25 12:50:01;;;;;;;33.60;22.10;;;15.70;61.60;;;;;;4194450;28;20185;-69
2023/01/25 12:52:47;;;;;;;32.53;22.80;;;15.70;61.60;;;;;;4193786;28;20056;-69
2023/01/25 12:55:31;;;;;;;33.47;22.27;;;15.60;61.40;;;;;;4201385;28;20054;-69
2023/01/25 12:58:20;;;;;;;32.47;22.15;;;15.60;61.40;;;;;;4202347;28;20196;-69
2023/01/25 13:01:20;;;;;;;34.63;23.63;;;15.60;61.60;;;;;;4192414;28;20077;-68
2023/01/25 13:04:18;;;;;;;34.17;24.13;;;15.60;61.50;;;;;;4199512;28;20056;-70
2023/01/25 13:07:09;;;;;;;35.85;23.02;;;15.60;61.30;;;;;;4193204;28;20203;-68
2023/01/25 13:09:58;;;;;;;37.15;23.70;;;15.60;61.50;;;;;;4195638;28;20055;-68
2023/01/25 13:12:54;;;;;;;33.03;23.50;;;15.50;61.60;;;;;;4191903;28;20048;-68
2023/01/25 13:15:38;;;;;;;35.47;24.27;;;15.50;61.60;;;;;;4198725;28;20081;-68
2023/01/25 13:18:39;;;;;;;35.70;24.02;;;15.60;61.80;;;;;;4189657;28;20112;-69
2023/01/25 13:21:43;;;;;;;32.50;22.00;;;15.60;61.50;;;;;;4196295;28;20051;-68
2023/01/25 13:24:26;;;;;;;34.92;23.00;;;15.70;61.50;;;;;;4202755;28;20070;-68
2023/01/25 13:27:24;;;;;;;33.35;21.63;;;15.70;61.30;;;;;;4189633;28;20055;-69
2023/01/25 13:30:27;;;;;;;33.83;22.35;;;15.70;60.90;;;;;;4193373;28;20137;-69
2023/01/25 13:33:09;;;;;;;34.75;22.70;;;15.70;60.90;;;;;;4196243;28;20067;-69
2023/01/25 13:35:50;;;;;;;35.53;21.67;;;15.60;61.20;;;;;;4190849;28;20506;-69
2023/01/25 13:38:37;;;;;;;30.20;20.98;;;15.50;61.40;;;;;;4193422;28;20102;-69
2023/01/25 13:41:18;;;;;;;35.58;22.13;;;15.40;61.70;;;;;;4195362;28;20153;-69
2023/01/25 13:44:21;;;;;;;33.30;20.13;;;15.40;62.00;;;;;;4196676;28;20067;-70
2023/01/25 13:47:05;;;;;;;33.33;20.95;;;15.30;61.70;;;;;;4190325;28;20130;-69
2023/01/25 13:49:53;;;;;;;31.38;18.98;;;15.30;62.00;;;;;;4195566;28;20054;-70
2023/01/25 13:52:34;;;;;;;35.95;20.85;;;15.30;62.20;;;;;;4201921;28;20097;-70
2023/01/25 13:55:18;;;;;;;32.45;20.48;;;15.40;62.40;;;;;;4192372;28;20070;-69
2023/01/25 13:58:09;;;;;;;32.83;19.55;;;15.30;62.10;;;;;;4199232;28;20074;-68
2023/01/25 14:00:52;;;;;;;;;;;15.40;62.10;;;;;;4200907;28;20055;-68